Time;durP1;ratioP1;P1;durP2;ratioP2;P2;SDS_P1;SDS_P2;PMS_P1;PMS_P2;Temp;Humidity;BMP_temperature;BMP_pressure;BME280_temperature;BME280_humidity;BME280_pressure;Samples;Min_cycle;Max_cycle;Signal;HPM_P1;HPM_P2
2022/04/15 00:00:24;;;;;;;21.40;15.98;;;;;;;6.53;91.52;102423.59;6216588;23;20004;-81
2022/04/15 00:02:52;;;;;;;21.67;16.02;;;;;;;6.84;91.47;102482.00;6216222;23;20001;-78
2022/04/15 00:08:06;;;;;;;21.77;15.18;;;;;;;6.76;91.78;102489.00;6206155;23;20015;-79
2022/04/15 00:10:32;;;;;;;21.08;14.70;;;;;;;6.38;91.91;102430.75;6216299;23;20092;-79
2022/04/15 00:12:58;;;;;;;22.83;15.30;;;;;;;6.71;92.17;102489.13;6216448;23;20007;-78
2022/04/15 00:15:24;;;;;;;22.27;15.55;;;;;;;6.70;92.63;102481.44;6215978;23;20431;-78
2022/04/15 00:17:51;;;;;;;25.15;15.65;;;;;;;6.46;92.04;102457.94;6216144;23;20012;-79
2022/04/15 00:20:17;;;;;;;21.75;15.00;;;;;;;6.52;92.32;102473.25;6216007;23;20008;-78
2022/04/15 00:22:42;;;;;;;24.25;15.85;;;;;;;6.57;92.31;102479.09;6188805;23;20498;-79
2022/04/15 00:25:10;;;;;;;21.50;15.25;;;;;;;6.48;92.55;102473.31;6215576;23;20009;-80
2022/04/15 00:27:36;;;;;;;21.88;15.02;;;;;;;6.43;91.94;102478.53;6215903;23;20024;-79
2022/04/15 00:30:03;;;;;;;22.92;15.15;;;;;;;6.15;91.96;102450.00;6215771;23;20059;-79
2022/04/15 00:32:28;;;;;;;22.35;14.77;;;;;;;6.38;91.68;102488.03;6216384;23;20410;-78
2022/04/15 00:35:03;;;;;;;21.48;15.23;;;;;;;6.00;92.27;102440.03;6215688;23;20047;-79
2022/04/15 00:37:28;;;;;;;19.92;15.07;;;;;;;6.31;92.39;102501.88;6215565;23;20422;-79
2022/04/15 00:39:53;;;;;;;24.63;15.40;;;;;;;6.23;92.51;102485.78;6216098;23;20011;-79
2022/04/15 00:42:22;;;;;;;19.17;13.60;;;;;;;5.97;92.88;102458.88;6215793;23;20512;-79
2022/04/15 00:44:48;;;;;;;20.13;14.13;;;;;;;6.07;93.18;102476.66;6215810;23;20032;-77
2022/04/15 00:47:41;;;;;;;19.77;14.77;;;;;;;6.04;93.74;102478.41;6216077;23;20007;-76
2022/04/15 00:50:07;;;;;;;21.77;14.15;;;;;;;6.20;93.62;102506.38;6215803;23;20000;-79
2022/04/15 00:52:38;;;;;;;21.35;14.20;;;;;;;6.16;93.54;102507.28;6215513;23;20055;-78
2022/04/15 00:55:05;;;;;;;20.90;13.55;;;;;;;6.03;93.55;102499.81;6215725;23;20000;-79
2022/04/15 00:57:33;;;;;;;20.38;14.38;;;;;;;5.96;93.71;102489.66;6215691;23;20005;-79
2022/04/15 01:00:01;;;;;;;22.30;14.38;;;;;;;6.12;94.04;102521.03;6215738;23;20004;-80
2022/04/15 01:02:29;;;;;;;23.73;14.75;;;;;;;5.78;93.51;102466.88;6215597;23;20075;-79
2022/04/15 01:04:56;;;;;;;23.15;14.40;;;;;;;5.78;93.44;102477.97;6215476;23;20456;-80
2022/04/15 01:07:26;;;;;;;21.30;14.07;;;;;;;5.52;93.21;102441.69;6215717;23;20036;-80
2022/04/15 01:09:52;;;;;;;24.00;15.52;;;;;;;5.64;93.56;102467.94;6215933;23;20338;-79
2022/04/15 01:12:21;;;;;;;25.63;15.45;;;;;;;5.91;93.40;102517.97;6215375;23;20005;-82
2022/04/15 01:14:48;;;;;;;23.42;14.70;;;;;;;5.88;93.44;102517.97;6215639;23;20430;-79
2022/04/15 01:17:13;;;;;;;22.15;14.73;;;;;;;5.85;93.53;102520.59;6215680;23;20027;-79
2022/04/15 01:19:40;;;;;;;22.48;14.35;;;;;;;5.78;93.24;102511.28;6215741;23;20009;-78
2022/04/15 01:22:11;;;;;;;22.13;15.35;;;;;;;5.80;93.48;102517.25;6215570;23;20005;-79
2022/04/15 01:24:40;;;;;;;23.63;15.15;;;;;;;5.80;93.34;102518.94;6215184;23;20084;-78
2022/04/15 01:27:07;;;;;;;23.02;14.45;;;;;;;5.54;93.32;102489.47;6215859;23;20080;-80
2022/04/15 01:29:40;;;;;;;22.25;15.00;;;;;;;5.73;93.37;102528.47;6215658;23;20012;-79
2022/04/15 01:32:07;;;;;;;23.02;15.30;;;;;;;5.71;93.83;102522.53;6215478;23;20023;-78
2022/04/15 01:34:34;;;;;;;22.13;15.38;;;;;;;5.65;94.29;102520.91;6215444;23;20029;-79
2022/04/15 01:37:00;;;;;;;23.65;14.52;;;;;;;5.66;94.00;102525.16;6215493;23;20427;-79
2022/04/15 01:39:27;;;;;;;19.83;13.82;;;;;;;5.45;94.35;102502.41;6215601;23;20019;-78
2022/04/15 01:41:53;;;;;;;18.60;13.07;;;;;;;5.59;94.35;102525.25;6215900;23;20066;-85
2022/04/15 01:44:18;;;;;;;17.45;12.27;;;;;;;5.58;94.60;102521.84;6215524;23;20024;-79
2022/04/15 01:46:44;;;;;;;25.23;16.52;;;;;;;5.44;95.53;102499.00;6215852;23;20055;-78
2022/04/15 01:49:10;;;;;;;19.30;13.52;;;;;;;5.56;95.14;102527.88;6215422;23;20001;-78
2022/04/15 01:51:36;;;;;;;21.10;13.35;;;;;;;5.30;94.52;102485.53;6215626;23;20429;-78
2022/04/15 01:54:03;;;;;;;21.00;14.23;;;;;;;5.40;94.39;102525.53;6215234;23;20047;-78
2022/04/15 01:56:28;;;;;;;19.25;13.38;;;;;;;5.46;94.32;102540.81;6215841;23;20570;-78
2022/04/15 01:58:56;;;;;;;19.15;13.55;;;;;;;4.98;94.54;102469.78;6215676;23;20016;-79
2022/04/15 02:01:22;;;;;;;20.88;14.23;;;;;;;5.39;94.69;102539.19;6215323;23;20005;-78
2022/04/15 02:03:47;;;;;;;21.45;14.95;;;;;;;5.32;94.81;102537.63;6215009;23;20001;-83
2022/04/15 02:06:13;;;;;;;21.65;15.18;;;;;;;5.14;94.59;102512.25;6187490;23;20015;-79
2022/04/15 02:08:38;;;;;;;22.42;15.73;;;;;;;4.81;94.55;102460.59;6215152;23;20001;-78
2022/04/15 02:11:03;;;;;;;22.17;15.55;;;;;;;5.26;94.64;102537.69;6215271;23;20062;-81
2022/04/15 02:13:29;;;;;;;25.50;16.15;;;;;;;5.27;94.38;102546.22;6217403;23;20004;-79
2022/04/15 02:15:54;;;;;;;25.30;17.00;;;;;;;5.27;94.58;102547.06;6217445;23;20426;-78
2022/04/15 02:18:19;;;;;;;23.45;17.00;;;;;;;5.21;94.43;102541.16;6217296;23;20000;-79
2022/04/15 02:20:45;;;;;;;26.15;17.60;;;;;;;5.24;95.01;102554.78;6217032;23;20000;-87
2022/04/15 02:23:10;;;;;;;23.35;16.00;;;;;;;5.13;95.22;102542.13;6216916;23;20004;-87
2022/04/15 02:25:36;;;;;;;24.08;16.45;;;;;;;5.17;94.95;102554.03;6216870;23;20331;-79
2022/04/15 02:28:01;;;;;;;26.05;17.55;;;;;;;5.19;95.42;102559.97;6217103;23;20001;-86
2022/04/15 02:30:26;;;;;;;18.88;14.68;;;;;;;4.92;94.86;102528.72;6216957;23;20001;-79
2022/04/15 02:32:52;;;;;;;22.90;15.02;;;;;;;5.03;94.75;102547.41;6217064;23;20048;-78
2022/04/15 02:35:17;;;;;;;18.95;13.90;;;;;;;4.90;94.97;102537.28;6190332;23;20008;-79
2022/04/15 02:37:42;;;;;;;23.27;15.13;;;;;;;4.78;95.13;102529.75;6216891;23;20050;-87
2022/04/15 02:40:08;;;;;;;22.75;14.73;;;;;;;4.62;95.88;102494.97;6216929;23;20008;-78
2022/04/15 02:42:34;;;;;;;22.80;14.45;;;;;;;4.86;95.88;102543.31;6217045;23;20339;-80
2022/04/15 02:45:01;;;;;;;19.48;13.25;;;;;;;5.02;95.34;102573.88;6217107;23;20326;-79
2022/04/15 02:47:28;;;;;;;21.77;14.02;;;;;;;4.92;95.38;102556.88;6216775;23;19996;-80
2022/04/15 02:49:54;;;;;;;22.00;14.18;;;;;;;4.75;95.48;102537.47;6216677;23;20422;-78
2022/04/15 02:52:19;;;;;;;21.77;14.15;;;;;;;4.92;95.25;102570.56;6217225;23;20009;-78
2022/04/15 02:54:44;;;;;;;19.63;12.82;;;;;;;4.89;95.37;102575.69;6216931;23;20334;-79
2022/04/15 02:57:10;;;;;;;19.63;13.38;;;;;;;4.81;94.89;102570.66;6184584;23;20446;-79
2022/04/15 02:59:38;;;;;;;21.83;14.15;;;;;;;3.86;94.86;102416.53;6217023;23;20139;-79
2022/04/15 03:02:06;;;;;;;20.20;14.38;;;;;;;4.42;95.33;102514.78;6190401;23;20004;-78
2022/04/15 03:04:32;;;;;;;20.73;13.98;;;;;;;4.78;95.71;102568.13;6217080;23;20071;-86
2022/04/15 03:06:57;;;;;;;26.38;15.88;;;;;;;4.76;95.80;102569.88;6216618;23;20051;-84
2022/04/15 03:09:22;;;;;;;24.23;15.73;;;;;;;4.56;95.99;102539.38;6216788;23;20005;-79
2022/04/15 03:11:48;;;;;;;24.20;14.75;;;;;;;4.65;95.36;102558.06;6216175;23;20008;-87
2022/04/15 03:14:14;;;;;;;25.98;16.02;;;;;;;4.68;95.39;102570.81;6217423;23;20000;-88
2022/04/15 03:16:39;;;;;;;22.75;16.23;;;;;;;4.53;95.64;102547.09;6216847;23;20403;-87
2022/04/15 03:19:04;;;;;;;23.33;16.42;;;;;;;4.67;96.40;102562.28;6190121;23;20000;-86
2022/04/15 03:21:32;;;;;;;26.88;16.83;;;;;;;4.71;96.12;102560.53;6216811;23;20001;-86
2022/04/15 03:24:00;;;;;;;31.40;18.58;;;;;;;4.84;96.49;102575.75;6216544;23;20067;-88
2022/04/15 03:26:25;;;;;;;32.20;19.42;;;;;;;4.98;97.27;102582.44;6216727;23;20083;-87
2022/04/15 03:28:54;;;;;;;26.38;17.70;;;;;;;4.81;96.98;102545.06;6217105;23;20076;-88
2022/04/15 03:31:19;;;;;;;33.03;21.98;;;;;;;5.33;99.37;102577.72;6216830;23;20009;-87
2022/04/15 03:33:47;;;;;;;68.72;29.40;;;;;;;5.52;100.00;102568.09;6216735;23;20060;-87
2022/04/15 03:36:13;;;;;;;53.35;28.50;;;;;;;5.79;100.00;102578.78;6216555;23;20009;-87
2022/04/15 03:38:39;;;;;;;61.85;26.83;;;;;;;5.77;100.00;102560.88;6216235;23;20004;-88
2022/04/15 03:41:05;;;;;;;52.70;26.95;;;;;;;5.93;100.00;102579.47;6190169;23;20028;-84
2022/04/15 03:43:30;;;;;;;53.85;28.08;;;;;;;6.03;100.00;102581.03;6216669;23;20032;-81
2022/04/15 03:45:56;;;;;;;71.38;28.40;;;;;;;5.84;100.00;102552.22;6216450;23;20422;-87
2022/04/15 03:48:21;;;;;;;65.22;28.02;;;;;;;5.81;100.00;102533.50;6216480;23;20422;-88
2022/04/15 03:50:46;;;;;;;63.60;27.88;;;;;;;6.09;100.00;102580.91;6217107;23;20005;-87
2022/04/15 03:53:12;;;;;;;80.80;28.33;;;;;;;6.16;100.00;102591.91;6216287;23;20445;-87
2022/04/15 03:55:37;;;;;;;127.22;30.15;;;;;;;6.15;100.00;102583.38;6216174;23;20058;-85
2022/04/15 03:58:02;;;;;;;78.85;26.75;;;;;;;6.12;100.00;102597.97;6216023;23;20067;-86
2022/04/15 04:00:28;;;;;;;49.50;24.48;;;;;;;5.92;100.00;102570.09;6216660;23;20028;-81
2022/04/15 04:02:54;;;;;;;44.13;24.83;;;;;;;6.08;100.00;102602.28;6216670;23;20007;-85
2022/04/15 04:05:20;;;;;;;53.55;25.25;;;;;;;6.07;100.00;102605.72;6216808;23;20008;-87
2022/04/15 04:07:46;;;;;;;46.00;24.25;;;;;;;5.95;100.00;102596.50;6216010;23;20323;-84
2022/04/15 04:10:12;;;;;;;55.53;22.65;;;;;;;6.03;100.00;102607.50;6215790;23;20092;-86
2022/04/15 04:12:38;;;;;;;43.92;21.52;;;;;;;5.71;100.00;102561.81;6216377;23;20036;-84
2022/04/15 04:15:06;;;;;;;42.53;21.13;;;;;;;5.97;100.00;102610.16;6216347;23;19997;-85
2022/04/15 04:17:32;;;;;;;38.88;21.25;;;;;;;5.91;100.00;102602.56;6216050;23;20001;-80
2022/04/15 04:19:58;;;;;;;43.97;19.80;;;;;;;5.82;100.00;102586.44;6215792;23;20096;-77
2022/04/15 04:22:28;;;;;;;44.28;21.52;;;;;;;5.94;100.00;102609.38;6216039;23;20032;-77
2022/04/15 04:24:53;;;;;;;46.45;21.52;;;;;;;5.96;100.00;102618.72;6215818;23;20143;-85
2022/04/15 04:27:19;;;;;;;63.10;20.83;;;;;;;5.98;100.00;102616.97;6215784;23;20426;-76
2022/04/15 04:29:44;;;;;;;56.95;21.00;;;;;;;5.97;100.00;102622.97;6216194;23;20029;-84
2022/04/15 04:32:09;;;;;;;54.10;21.33;;;;;;;5.82;100.00;102599.28;6215834;23;20005;-89
2022/04/15 04:34:35;;;;;;;64.60;21.95;;;;;;;5.93;100.00;102612.81;6216834;23;20063;-83
2022/04/15 04:37:00;;;;;;;71.57;22.45;;;;;;;6.02;100.00;102628.06;6215840;23;20075;-80
2022/04/15 04:39:29;;;;;;;99.72;25.05;;;;;;;5.81;100.00;102587.31;6216169;23;20016;-81
2022/04/15 04:41:56;;;;;;;85.55;24.75;;;;;;;6.07;100.00;102636.50;6215692;23;20004;-88
2022/04/15 04:44:21;;;;;;;51.83;23.50;;;;;;;6.11;100.00;102635.59;6216858;23;20004;-82
2022/04/15 04:46:47;;;;;;;60.47;24.73;;;;;;;6.07;100.00;102620.28;6215956;23;20012;-83
2022/04/15 04:49:13;;;;;;;48.40;24.20;;;;;;;6.18;100.00;102636.34;6215570;23;20434;-84
2022/04/15 04:51:38;;;;;;;42.15;24.55;;;;;;;6.06;100.00;102616.03;6215814;23;20005;-82
2022/04/15 04:54:04;;;;;;;42.95;25.55;;;;;;;6.17;100.00;102621.81;6215978;23;20027;-83
2022/04/15 04:56:29;;;;;;;49.22;22.88;;;;;;;6.07;100.00;102604.88;6215541;23;20012;-80
2022/04/15 04:58:55;;;;;;;49.60;25.30;;;;;;;6.27;100.00;102642.16;6188170;23;20009;-83
2022/04/15 05:01:20;;;;;;;39.42;22.98;;;;;;;6.22;100.00;102632.88;6215626;23;20004;-79
2022/04/15 05:03:45;;;;;;;39.92;24.35;;;;;;;6.33;100.00;102648.94;6215353;23;20118;-79
2022/04/15 05:06:10;;;;;;;43.80;24.83;;;;;;;6.36;100.00;102661.72;6189034;23;20012;-80
2022/04/15 05:08:36;;;;;;;45.45;24.92;;;;;;;6.31;100.00;102654.09;6188136;23;20015;-78
2022/04/15 05:11:03;;;;;;;45.90;26.15;;;;;;;6.40;100.00;102662.53;6215618;23;20001;-82
2022/04/15 05:13:29;;;;;;;47.53;26.67;;;;;;;6.37;100.00;102654.84;6215444;23;20153;-83
2022/04/15 05:15:54;;;;;;;53.20;26.45;;;;;;;6.44;100.00;102664.16;6215935;23;20418;-83
2022/04/15 05:18:19;;;;;;;50.08;28.23;;;;;;;6.33;100.00;102642.09;6215738;23;20331;-82
2022/04/15 05:20:45;;;;;;;46.33;25.98;;;;;;;6.34;100.00;102637.78;6215430;23;20012;-82
2022/04/15 05:23:12;;;;;;;50.65;28.10;;;;;;;6.44;100.00;102641.91;6215831;23;20001;-80
2022/04/15 05:25:40;;;;;;;44.35;26.50;;;;;;;6.67;100.00;102684.28;6215842;23;20005;-83
2022/04/15 05:28:06;;;;;;;46.70;25.98;;;;;;;6.55;100.00;102654.56;6215338;23;20004;-81
2022/04/15 05:30:31;;;;;;;48.17;26.10;;;;;;;6.73;100.00;102687.63;6189225;23;20001;-83
2022/04/15 05:32:56;;;;;;;49.10;26.75;;;;;;;6.52;100.00;102647.75;6215310;23;20001;-79
2022/04/15 05:35:22;;;;;;;47.13;27.42;;;;;;;6.80;100.00;102686.66;6215478;23;20000;-79
2022/04/15 05:37:47;;;;;;;45.30;25.00;;;;;;;6.88;100.00;102697.63;6215344;23;20083;-79
2022/04/15 05:40:13;;;;;;;42.08;24.63;;;;;;;6.88;100.00;102697.63;6215732;23;20031;-80
2022/04/15 05:42:38;;;;;;;43.00;24.38;;;;;;;6.90;100.00;102693.31;6215492;23;20001;-79
2022/04/15 05:45:04;;;;;;;47.92;23.98;;;;;;;6.94;100.00;102694.09;6215275;23;20334;-80
2022/04/15 05:47:29;;;;;;;46.55;25.55;;;;;;;7.00;100.00;102703.44;6216337;23;20004;-79
2022/04/15 05:49:55;;;;;;;43.03;25.13;;;;;;;6.88;100.00;102683.91;6217401;23;20438;-80
2022/04/15 05:52:20;;;;;;;44.42;25.17;;;;;;;7.05;100.00;102714.44;6217521;23;20032;-79
2022/04/15 05:54:46;;;;;;;46.10;24.92;;;;;;;7.08;100.00;102717.81;6217669;23;20362;-81
2022/04/15 05:57:11;;;;;;;46.92;25.55;;;;;;;7.10;100.00;102716.06;6217139;23;20016;-79
2022/04/15 05:59:36;;;;;;;44.70;24.88;;;;;;;7.14;100.00;102717.69;6216961;23;20005;-79
2022/04/15 06:02:53;;;;;;;45.03;25.17;;;;;;;7.14;100.00;102725.41;6217875;23;20511;-84
2022/04/15 06:05:12;;;;;;;45.63;24.45;;;;;;;6.31;100.00;102582.25;6141767;23;20005;-80
2022/04/15 06:07:37;;;;;;;44.90;24.70;;;;;;;6.33;100.00;102577.94;6217291;23;20910;-79
2022/04/15 06:10:05;;;;;;;44.35;25.08;;;;;;;7.27;100.00;102733.72;6217061;23;20008;-79
2022/04/15 06:15:20;;;;;;;50.90;26.50;;;;;;;7.11;100.00;102715.19;6217180;23;20016;-80
2022/04/15 06:17:45;;;;;;;51.15;26.33;;;;;;;7.23;100.00;102728.69;6217026;23;20501;-81
2022/04/15 06:20:11;;;;;;;45.72;26.13;;;;;;;7.33;100.00;102740.50;6216999;23;20050;-79
2022/04/15 06:22:36;;;;;;;50.38;25.50;;;;;;;6.78;100.00;102649.00;6217432;23;20004;-83
2022/04/15 06:25:02;;;;;;;46.33;24.55;;;;;;;7.41;100.00;102733.47;6217195;23;20000;-79
2022/04/15 06:27:27;;;;;;;41.13;22.02;;;;;;;7.53;100.00;102740.94;6217366;23;20032;-83
2022/04/15 06:29:52;;;;;;;37.95;20.50;;;;;;;7.61;100.00;102745.94;6216747;23;20116;-84
2022/04/15 06:32:17;;;;;;;41.88;20.90;;;;;;;7.66;100.00;102744.97;6217547;23;20055;-80
2022/04/15 06:34:43;;;;;;;37.65;21.42;;;;;;;7.48;100.00;102717.91;6216952;23;20043;-80
2022/04/15 06:37:08;;;;;;;41.78;22.00;;;;;;;7.71;100.00;102748.31;6189700;23;20005;-79
2022/04/15 06:39:36;;;;;;;42.25;22.45;;;;;;;7.61;100.00;102722.81;6217381;23;20066;-81
2022/04/15 06:42:01;;;;;;;41.95;22.88;;;;;;;7.69;100.00;102744.06;6216969;23;20001;-79
2022/04/15 06:44:26;;;;;;;45.42;22.58;;;;;;;7.79;100.00;102766.16;6217108;23;20004;-79
2022/04/15 06:46:52;;;;;;;43.80;23.02;;;;;;;7.83;100.00;102767.78;6216868;23;20011;-76
2022/04/15 06:49:17;;;;;;;45.17;22.67;;;;;;;7.63;100.00;102723.63;6216914;23;20004;-79
2022/04/15 06:51:42;;;;;;;45.58;22.73;;;;;;;7.69;100.00;102738.94;6216788;23;20029;-78
2022/04/15 06:54:08;;;;;;;43.33;24.33;;;;;;;7.67;99.93;102748.38;6190632;23;20059;-79
2022/04/15 06:56:33;;;;;;;37.45;20.50;;;;;;;7.82;99.90;102773.78;6216834;23;20084;-82
2022/04/15 06:58:58;;;;;;;44.17;22.15;;;;;;;7.84;99.99;102769.47;6189428;23;20014;-83
2022/04/15 07:01:24;;;;;;;37.13;20.08;;;;;;;7.85;99.78;102772.88;6216953;23;20012;-82
2022/04/15 07:03:50;;;;;;;40.13;21.45;;;;;;;7.80;99.62;102770.41;6216749;23;20423;-84
2022/04/15 07:06:15;;;;;;;44.80;21.95;;;;;;;7.71;99.86;102753.44;6216667;23;20005;-84
2022/04/15 07:08:40;;;;;;;43.10;21.75;;;;;;;7.96;99.74;102776.94;6216692;23;20422;-84
2022/04/15 07:11:06;;;;;;;43.50;22.50;;;;;;;8.03;99.58;102785.38;6216990;23;20031;-84
2022/04/15 07:13:31;;;;;;;47.00;22.70;;;;;;;8.03;98.88;102772.50;6216662;23;20005;-84
2022/04/15 07:15:56;;;;;;;39.08;22.40;;;;;;;8.16;98.28;102786.81;6216795;23;20000;-83
2022/04/15 07:18:22;;;;;;;40.28;21.50;;;;;;;7.85;98.12;102721.44;6217147;23;20000;-84
2022/04/15 07:20:47;;;;;;;41.10;19.38;;;;;;;7.89;97.31;102728.22;6216978;23;20322;-83
2022/04/15 07:23:12;;;;;;;38.45;19.55;;;;;;;8.26;97.27;102787.47;6216764;23;20011;-82
2022/04/15 07:25:38;;;;;;;39.00;19.70;;;;;;;8.31;97.19;102794.19;6216847;23;20001;-83
2022/04/15 07:28:06;;;;;;;38.83;19.70;;;;;;;8.31;96.90;102776.16;6216965;23;20009;-84
2022/04/15 07:30:31;;;;;;;36.95;19.35;;;;;;;8.41;95.86;102796.59;6216573;23;20087;-83
2022/04/15 07:32:58;;;;;;;39.55;20.30;;;;;;;8.28;95.98;102773.66;6216726;23;20426;-83
2022/04/15 07:35:23;;;;;;;37.88;20.15;;;;;;;8.11;95.59;102746.59;6216804;23;20054;-82
2022/04/15 07:37:48;;;;;;;37.40;19.00;;;;;;;8.38;94.95;102796.66;6216022;23;20083;-84
2022/04/15 07:40:14;;;;;;;41.45;20.33;;;;;;;8.45;95.07;102799.06;6188093;23;20012;-84
2022/04/15 07:42:40;;;;;;;39.17;19.27;;;;;;;8.42;93.70;102785.41;6216663;23;20402;-79
2022/04/15 07:45:06;;;;;;;32.80;17.80;;;;;;;8.68;93.84;102797.69;6216111;23;20001;-79
2022/04/15 07:47:32;;;;;;;33.97;17.35;;;;;;;9.11;92.82;102806.06;6216185;23;20434;-80
2022/04/15 07:49:57;;;;;;;26.48;14.88;;;;;;;9.26;89.07;102799.69;6216147;23;20000;-83
2022/04/15 07:52:22;;;;;;;26.65;15.15;;;;;;;9.18;87.81;102783.56;6215966;23;20000;-83
2022/04/15 07:54:48;;;;;;;28.23;15.35;;;;;;;9.44;87.74;102804.34;6216203;23;20008;-85
2022/04/15 07:57:14;;;;;;;28.73;15.05;;;;;;;9.58;86.10;102805.72;6216040;23;20501;-83
2022/04/15 07:59:39;;;;;;;25.17;14.60;;;;;;;9.71;85.18;102779.53;6216054;23;20000;-84
2022/04/15 08:02:06;;;;;;;25.15;14.55;;;;;;;9.95;84.18;102785.72;6216119;23;20004;-82
2022/04/15 08:04:34;;;;;;;26.73;14.32;;;;;;;9.82;81.28;102748.25;6216040;23;20051;-83
2022/04/15 08:07:00;;;;;;;24.67;14.15;;;;;;;10.16;81.04;102786.84;6216540;23;20033;-81
2022/04/15 08:09:25;;;;;;;25.38;13.50;;;;;;;10.43;79.73;102794.69;6215820;23;20072;-80
2022/04/15 08:11:50;;;;;;;25.23;13.95;;;;;;;10.35;78.89;102751.00;6189313;23;20008;-83
2022/04/15 08:14:16;;;;;;;27.95;13.55;;;;;;;10.86;78.62;102797.56;6216636;23;20004;-82
2022/04/15 08:16:41;;;;;;;21.83;13.68;;;;;;;11.11;76.86;102800.19;6216205;23;20307;-79
2022/04/15 08:19:06;;;;;;;27.20;14.32;;;;;;;11.37;76.34;102804.47;6215743;23;20009;-80
2022/04/15 08:21:33;;;;;;;23.92;13.65;;;;;;;11.53;75.74;102804.78;6216322;23;20005;-81
2022/04/15 08:24:01;;;;;;;18.35;11.75;;;;;;;11.73;73.77;102810.09;6216004;23;20055;-78
2022/04/15 08:26:27;;;;;;;20.25;11.65;;;;;;;11.70;73.09;102805.03;6216398;23;20004;-80
2022/04/15 08:28:52;;;;;;;19.45;11.70;;;;;;;11.60;71.11;102805.38;6216192;23;20054;-79
2022/04/15 08:31:18;;;;;;;17.95;11.23;;;;;;;11.43;72.85;102801.69;6215936;23;20009;-79
2022/04/15 08:33:43;;;;;;;22.15;11.45;;;;;;;11.52;72.62;102797.09;6215588;23;20545;-79
2022/04/15 08:36:08;;;;;;;18.08;10.57;;;;;;;11.72;72.63;102800.63;6215876;23;20076;-79
2022/04/15 08:38:34;;;;;;;17.80;11.95;;;;;;;11.77;71.67;102806.47;6215771;23;20047;-78
2022/04/15 08:40:59;;;;;;;18.38;11.80;;;;;;;11.68;70.66;102800.78;6215630;23;20016;-78
2022/04/15 08:43:26;;;;;;;22.50;11.35;;;;;;;11.52;71.80;102810.03;6215781;23;20063;-79
2022/04/15 08:45:52;;;;;;;17.45;10.98;;;;;;;11.39;70.75;102799.22;6188678;23;20015;-78
2022/04/15 08:48:18;;;;;;;16.67;10.68;;;;;;;11.40;70.74;102800.91;6215451;23;20013;-79
2022/04/15 08:50:43;;;;;;;17.95;10.68;;;;;;;11.56;70.74;102819.34;6215722;23;20032;-79
2022/04/15 08:53:09;;;;;;;15.32;10.80;;;;;;;11.59;69.38;102824.41;6216075;23;20000;-78
2022/04/15 08:55:35;;;;;;;17.88;10.00;;;;;;;11.55;70.17;102809.91;6188793;23;20005;-78
2022/04/15 08:58:00;;;;;;;15.85;9.25;;;;;;;11.56;68.20;102791.72;6215856;23;20020;-78
2022/04/15 09:00:27;;;;;;;14.40;9.00;;;;;;;11.49;67.05;102782.50;6215478;23;20092;-78
2022/04/15 09:02:54;;;;;;;14.90;9.18;;;;;;;11.88;67.14;102824.22;6215656;23;20064;-79
2022/04/15 09:05:22;;;;;;;16.85;9.88;;;;;;;11.83;67.49;102805.47;6215507;23;20434;-79
2022/04/15 09:07:48;;;;;;;15.05;9.35;;;;;;;12.06;67.50;102833.91;6215454;23;20007;-79
2022/04/15 09:10:16;;;;;;;14.60;10.07;;;;;;;12.15;66.93;102829.31;6215386;23;20001;-79
2022/04/15 09:12:42;;;;;;;15.23;9.93;;;;;;;12.22;65.80;102828.19;6215845;23;20055;-79
2022/04/15 09:15:08;;;;;;;13.80;9.30;;;;;;;12.48;65.25;102838.38;6215458;23;20078;-79
2022/04/15 09:17:52;;;;;;;13.30;9.43;;;;;;;12.81;66.96;102833.63;6215630;23;20422;-80
2022/04/15 09:20:19;;;;;;;20.40;9.40;;;;;;;12.82;65.60;102835.28;6188821;23;20009;-79
2022/04/15 09:22:45;;;;;;;15.13;9.27;;;;;;;12.75;64.26;102833.00;6216813;23;20012;-78
2022/04/15 09:25:11;;;;;;;15.63;8.73;;;;;;;12.50;64.78;102841.75;6217752;23;20419;-78
2022/04/15 09:27:39;;;;;;;15.27;9.77;;;;;;;12.35;65.67;102834.56;6217758;23;20000;-77
2022/04/15 09:30:05;;;;;;;13.35;8.82;;;;;;;12.39;65.90;102836.16;6217161;23;20005;-78
2022/04/15 09:32:31;;;;;;;13.70;9.35;;;;;;;12.35;64.83;102838.00;6217341;23;20004;-78
2022/04/15 09:35:03;;;;;;;19.40;10.27;;;;;;;12.40;65.14;102837.84;6217546;23;20076;-78
2022/04/15 09:37:35;;;;;;;14.88;9.15;;;;;;;12.48;65.97;102848.72;6217744;23;20312;-78
2022/04/15 09:40:12;;;;;;;12.85;9.63;;;;;;;12.45;64.28;102854.03;6217906;23;20008;-78
2022/04/15 09:42:47;;;;;;;14.68;9.10;;;;;;;12.52;64.29;102847.72;6217592;23;20001;-78
2022/04/15 09:45:14;;;;;;;12.23;9.00;;;;;;;12.80;64.16;102849.25;6217398;23;20004;-78
2022/04/15 09:47:40;;;;;;;16.90;9.82;;;;;;;12.69;63.07;102848.81;6217738;23;20024;-78
2022/04/15 09:50:07;;;;;;;12.77;8.80;;;;;;;12.75;64.44;102853.75;6217582;23;20008;-78
2022/04/15 09:52:35;;;;;;;15.48;9.95;;;;;;;12.81;62.91;102854.34;6217310;23;20088;-78
2022/04/15 09:55:02;;;;;;;14.90;9.75;;;;;;;13.13;63.32;102857.38;6217240;23;20016;-77
2022/04/15 09:57:33;;;;;;;13.40;8.90;;;;;;;13.09;61.62;102835.09;6217032;23;20013;-79
2022/04/15 10:00:03;;;;;;;13.15;8.98;;;;;;;12.99;62.19;102841.56;6217595;23;20005;-78
2022/04/15 10:02:35;;;;;;;15.40;8.68;;;;;;;12.79;63.50;102844.97;6217271;23;20075;-78
2022/04/15 10:05:02;;;;;;;14.82;8.85;;;;;;;12.74;63.81;102858.09;6217179;23;20023;-80
2022/04/15 10:07:29;;;;;;;14.07;8.73;;;;;;;12.45;62.74;102846.28;6217198;23;20016;-79
2022/04/15 10:09:56;;;;;;;11.75;8.68;;;;;;;12.37;62.86;102860.41;6217592;23;20041;-79
2022/04/15 10:12:23;;;;;;;13.15;9.15;;;;;;;12.21;63.94;102858.41;6217415;23;19997;-78
2022/04/15 10:14:49;;;;;;;13.30;8.82;;;;;;;12.24;65.36;102852.28;6217503;23;20012;-79
2022/04/15 10:17:20;;;;;;;12.88;8.40;;;;;;;12.16;64.30;102862.06;6217198;23;20009;-79
2022/04/15 10:19:46;;;;;;;12.25;8.73;;;;;;;12.10;64.90;102839.84;6216775;23;20004;-78
2022/04/15 10:22:13;;;;;;;13.13;9.25;;;;;;;12.20;63.79;102838.59;6217089;23;20009;-78
2022/04/15 10:24:38;;;;;;;15.88;8.90;;;;;;;12.42;64.87;102850.72;6217350;23;20028;-78
2022/04/15 10:27:04;;;;;;;15.70;9.18;;;;;;;12.58;63.95;102854.41;6216936;23;20013;-78
2022/04/15 10:29:29;;;;;;;15.32;9.25;;;;;;;12.61;62.59;102856.91;6217115;23;20076;-78
2022/04/15 10:32:27;;;;;;;12.90;8.85;;;;;;;12.66;63.04;102828.19;6217075;23;20009;-78
2022/04/15 10:35:41;;;;;;;10.63;7.40;;;;;;;12.91;64.74;102854.84;6217912;23;20322;-78
2022/04/15 10:38:11;;;;;;;12.60;8.98;;;;;;;12.23;63.33;102715.91;6190828;23;20004;-78
2022/04/15 10:40:43;;;;;;;16.42;8.18;;;;;;;13.04;60.54;102830.06;6217041;23;20032;-80
2022/04/15 10:43:22;;;;;;;12.13;8.32;;;;;;;13.05;61.35;102810.16;6190183;23;20036;-78
2022/04/15 10:45:51;;;;;;;13.70;8.52;;;;;;;12.96;61.68;102798.41;6216852;23;20440;-79
2022/04/15 10:48:29;;;;;;;13.80;8.75;;;;;;;13.19;63.24;102839.84;6217055;23;19996;-80
2022/04/15 10:50:54;;;;;;;12.77;8.40;;;;;;;13.11;62.48;102841.03;6216524;23;20095;-79
2022/04/15 10:53:26;;;;;;;10.40;8.18;;;;;;;13.04;61.59;102837.84;6216768;23;20032;-83
2022/04/15 10:55:58;;;;;;;12.40;8.45;;;;;;;13.02;62.29;102834.47;6216600;23;20486;-82
2022/04/15 10:58:26;;;;;;;10.77;8.45;;;;;;;12.89;60.56;102813.41;6217149;23;20074;-84
2022/04/15 11:01:17;;;;;;;11.88;8.55;;;;;;;12.52;62.23;102784.69;6217195;23;20130;-83
2022/04/15 11:03:56;;;;;;;13.32;8.60;;;;;;;12.88;61.16;102840.25;6216367;23;20012;-84
2022/04/15 11:06:28;;;;;;;12.50;8.88;;;;;;;13.04;60.81;102842.19;6216890;23;20001;-84
2022/04/15 11:08:58;;;;;;;12.38;8.65;;;;;;;13.11;60.94;102839.28;6217290;23;20143;-85
2022/04/15 11:11:45;;;;;;;12.40;8.55;;;;;;;13.07;61.99;102835.13;6217910;23;20005;-83
2022/04/15 11:14:14;;;;;;;12.40;8.43;;;;;;;12.74;62.50;102820.94;6217072;23;20011;-88
2022/04/15 11:16:43;;;;;;;12.63;8.73;;;;;;;12.81;62.83;102836.22;6216691;23;20000;-80
2022/04/15 11:19:11;;;;;;;13.85;8.48;;;;;;;12.73;61.65;102834.81;6216426;23;20028;-81